sensor_id;sensor_type;location;lat;lon;timestamp;pressure;altitude;pressure_sealevel;temperature;humidity
76732;BME280;65656;51.130;13.658;2023-10-09T00:02:42;99810.88;;;9.58;100.00
76732;BME280;65656;51.130;13.658;2023-10-09T00:06:44;99811.22;;;9.61;100.00
76732;BME280;65656;51.130;13.658;2023-10-09T00:10:46;99798.13;;;9.63;100.00
76732;BME280;65656;51.130;13.658;2023-10-09T00:14:48;99807.22;;;9.75;100.00
76732;BME280;65656;51.130;13.658;2023-10-09T00:18:51;99793.75;;;9.74;100.00
76732;BME280;65656;51.130;13.658;2023-10-09T00:22:53;99773.06;;;9.78;100.00
76732;BME280;65656;51.130;13.658;2023-10-09T00:26:54;99755.22;;;9.87;100.00
76732;BME280;65656;51.130;13.658;2023-10-09T00:30:56;99764.16;;;9.83;100.00
76732;BME280;65656;51.130;13.658;2023-10-09T00:34:59;99740.44;;;9.88;100.00
76732;BME280;65656;51.130;13.658;2023-10-09T00:39:00;99705.81;;;9.94;100.00
76732;BME280;65656;51.130;13.658;2023-10-09T00:43:02;99683.47;;;9.85;100.00
76732;BME280;65656;51.130;13.658;2023-10-09T00:47:06;99657.66;;;9.81;100.00
76732;BME280;65656;51.130;13.658;2023-10-09T00:51:09;99665.25;;;9.79;100.00
76732;BME280;65656;51.130;13.658;2023-10-09T00:55:12;99680.59;;;9.80;100.00
76732;BME280;65656;51.130;13.658;2023-10-09T00:59:16;99708.59;;;9.82;100.00
76732;BME280;65656;51.130;13.658;2023-10-09T01:03:18;99711.41;;;9.87;100.00
76732;BME280;65656;51.130;13.658;2023-10-09T01:07:22;99700.97;;;9.84;100.00
76732;BME280;65656;51.130;13.658;2023-10-09T01:11:24;99698.34;;;9.89;100.00
76732;BME280;65656;51.130;13.658;2023-10-09T01:15:25;99694.53;;;9.90;100.00
76732;BME280;65656;51.130;13.658;2023-10-09T01:19:27;99692.25;;;9.87;100.00
76732;BME280;65656;51.130;13.658;2023-10-09T01:23:30;99680.25;;;9.88;100.00
76732;BME280;65656;51.130;13.658;2023-10-09T01:27:32;99655.28;;;9.96;100.00
76732;BME280;65656;51.130;13.658;2023-10-09T01:31:34;99657.75;;;9.98;100.00
76732;BME280;65656;51.130;13.658;2023-10-09T01:35:35;99639.31;;;9.93;100.00
76732;BME280;65656;51.130;13.658;2023-10-09T01:39:39;99646.00;;;9.74;100.00
76732;BME280;65656;51.130;13.658;2023-10-09T01:43:41;99647.78;;;9.68;100.00
76732;BME280;65656;51.130;13.658;2023-10-09T01:47:42;99648.63;;;9.69;100.00
76732;BME280;65656;51.130;13.658;2023-10-09T01:51:44;99636.97;;;9.62;100.00
76732;BME280;65656;51.130;13.658;2023-10-09T01:55:46;99618.88;;;9.61;100.00
76732;BME280;65656;51.130;13.658;2023-10-09T01:59:49;99608.16;;;9.71;100.00
76732;BME280;65656;51.130;13.658;2023-10-09T02:03:51;99574.38;;;9.77;100.00
76732;BME280;65656;51.130;13.658;2023-10-09T02:07:53;99577.00;;;9.72;100.00
76732;BME280;65656;51.130;13.658;2023-10-09T02:11:56;99561.28;;;9.79;100.00
76732;BME280;65656;51.130;13.658;2023-10-09T02:15:57;99569.81;;;9.94;100.00
76732;BME280;65656;51.130;13.658;2023-10-09T02:19:59;99572.66;;;9.99;100.00
76732;BME280;65656;51.130;13.658;2023-10-09T02:24:01;99546.94;;;10.00;100.00
76732;BME280;65656;51.130;13.658;2023-10-09T02:28:04;99520.25;;;10.08;100.00
76732;BME280;65656;51.130;13.658;2023-10-09T02:32:06;99516.03;;;10.17;100.00
76732;BME280;65656;51.130;13.658;2023-10-09T02:36:08;99502.75;;;10.09;100.00
76732;BME280;65656;51.130;13.658;2023-10-09T02:40:10;99507.16;;;10.10;100.00
76732;BME280;65656;51.130;13.658;2023-10-09T02:44:13;99501.66;;;10.10;100.00
76732;BME280;65656;51.130;13.658;2023-10-09T02:48:16;99483.59;;;10.09;100.00
76732;BME280;65656;51.130;13.658;2023-10-09T02:52:18;99478.13;;;10.09;100.00
76732;BME280;65656;51.130;13.658;2023-10-09T02:56:19;99460.34;;;10.11;100.00
76732;BME280;65656;51.130;13.658;2023-10-09T03:00:22;99440.88;;;10.08;100.00
76732;BME280;65656;51.130;13.658;2023-10-09T03:04:24;99442.28;;;10.10;100.00
76732;BME280;65656;51.130;13.658;2023-10-09T03:08:26;99438.13;;;10.08;100.00
76732;BME280;65656;51.130;13.658;2023-10-09T03:12:27;99422.78;;;10.07;100.00
76732;BME280;65656;51.130;13.658;2023-10-09T03:16:30;99402.13;;;9.99;100.00
76732;BME280;65656;51.130;13.658;2023-10-09T03:20:32;99395.00;;;9.98;100.00
76732;BME280;65656;51.130;13.658;2023-10-09T03:24:33;99373.91;;;9.98;100.00
76732;BME280;65656;51.130;13.658;2023-10-09T03:28:35;99374.00;;;10.03;100.00
76732;BME280;65656;51.130;13.658;2023-10-09T03:32:38;99347.22;;;10.05;100.00
76732;BME280;65656;51.130;13.658;2023-10-09T03:36:39;99364.06;;;9.97;100.00
76732;BME280;65656;51.130;13.658;2023-10-09T03:40:41;99379.88;;;9.95;100.00
76732;BME280;65656;51.130;13.658;2023-10-09T03:44:43;99383.00;;;9.87;100.00
76732;BME280;65656;51.130;13.658;2023-10-09T03:48:46;99382.53;;;9.90;100.00
76732;BME280;65656;51.130;13.658;2023-10-09T03:52:47;99377.91;;;9.91;100.00
76732;BME280;65656;51.130;13.658;2023-10-09T03:56:49;99386.34;;;9.89;100.00
76732;BME280;65656;51.130;13.658;2023-10-09T04:00:51;99378.03;;;9.84;100.00
76732;BME280;65656;51.130;13.658;2023-10-09T04:04:54;99360.78;;;9.84;100.00
76732;BME280;65656;51.130;13.658;2023-10-09T04:08:55;99367.41;;;9.88;100.00
76732;BME280;65656;51.130;13.658;2023-10-09T04:12:57;99380.38;;;9.92;100.00
76732;BME280;65656;51.130;13.658;2023-10-09T04:16:58;99376.09;;;9.96;100.00
76732;BME280;65656;51.130;13.658;2023-10-09T04:21:01;99374.75;;;9.99;100.00
76732;BME280;65656;51.130;13.658;2023-10-09T04:25:03;99374.31;;;9.90;100.00
76732;BME280;65656;51.130;13.658;2023-10-09T04:29:05;99368.84;;;9.90;100.00
76732;BME280;65656;51.130;13.658;2023-10-09T04:33:07;99369.72;;;9.79;100.00
76732;BME280;65656;51.130;13.658;2023-10-09T04:37:09;99363.94;;;9.75;100.00
76732;BME280;65656;51.130;13.658;2023-10-09T04:41:11;99353.66;;;9.83;100.00
76732;BME280;65656;51.130;13.658;2023-10-09T04:45:12;99334.59;;;9.88;100.00
76732;BME280;65656;51.130;13.658;2023-10-09T04:49:14;99348.19;;;9.99;100.00
76732;BME280;65656;51.130;13.658;2023-10-09T04:53:17;99339.06;;;9.94;100.00
76732;BME280;65656;51.130;13.658;2023-10-09T04:57:18;99326.16;;;9.89;100.00
76732;BME280;65656;51.130;13.658;2023-10-09T05:01:20;99313.75;;;10.03;100.00
76732;BME280;65656;51.130;13.658;2023-10-09T05:05:22;99299.19;;;10.15;100.00
76732;BME280;65656;51.130;13.658;2023-10-09T05:09:25;99297.94;;;10.05;100.00
76732;BME280;65656;51.130;13.658;2023-10-09T05:13:28;99280.34;;;10.01;100.00
76732;BME280;65656;51.130;13.658;2023-10-09T05:17:30;99281.19;;;10.02;100.00
76732;BME280;65656;51.130;13.658;2023-10-09T05:21:33;99271.06;;;10.02;100.00
76732;BME280;65656;51.130;13.658;2023-10-09T05:25:36;99274.22;;;9.94;100.00
76732;BME280;65656;51.130;13.658;2023-10-09T05:29:38;99254.47;;;9.92;100.00
76732;BME280;65656;51.130;13.658;2023-10-09T05:33:39;99260.47;;;9.89;100.00
76732;BME280;65656;51.130;13.658;2023-10-09T05:37:41;99257.63;;;9.84;100.00
76732;BME280;65656;51.130;13.658;2023-10-09T05:41:45;99279.53;;;9.84;100.00
76732;BME280;65656;51.130;13.658;2023-10-09T05:45:48;99289.31;;;9.80;100.00
76732;BME280;65656;51.130;13.658;2023-10-09T05:49:50;99281.19;;;9.85;100.00
76732;BME280;65656;51.130;13.658;2023-10-09T05:53:51;99295.78;;;9.91;100.00
76732;BME280;65656;51.130;13.658;2023-10-09T05:57:55;99295.63;;;9.97;100.00
76732;BME280;65656;51.130;13.658;2023-10-09T06:01:57;99283.03;;;9.96;100.00
76732;BME280;65656;51.130;13.658;2023-10-09T06:05:58;99280.84;;;9.98;100.00
76732;BME280;65656;51.130;13.658;2023-10-09T06:10:00;99286.81;;;9.95;100.00
76732;BME280;65656;51.130;13.658;2023-10-09T06:14:03;99271.56;;;9.99;100.00
76732;BME280;65656;51.130;13.658;2023-10-09T06:18:04;99269.66;;;10.00;100.00
76732;BME280;65656;51.130;13.658;2023-10-09T06:22:06;99262.28;;;10.00;100.00
76732;BME280;65656;51.130;13.658;2023-10-09T06:26:08;99267.75;;;10.00;100.00
76732;BME280;65656;51.130;13.658;2023-10-09T06:30:12;99267.88;;;10.11;100.00
76732;BME280;65656;51.130;13.658;2023-10-09T06:34:13;99266.75;;;10.23;100.00
76732;BME280;65656;51.130;13.658;2023-10-09T06:38:15;99261.09;;;10.30;100.00
76732;BME280;65656;51.130;13.658;2023-10-09T06:42:17;99275.72;;;10.36;100.00
76732;BME280;65656;51.130;13.658;2023-10-09T06:46:20;99265.19;;;10.49;100.00
76732;BME280;65656;51.130;13.658;2023-10-09T06:50:22;99277.31;;;10.53;100.00
76732;BME280;65656;51.130;13.658;2023-10-09T06:54:24;99278.97;;;10.54;100.00
76732;BME280;65656;51.130;13.658;2023-10-09T06:58:25;99284.09;;;10.68;100.00
76732;BME280;65656;51.130;13.658;2023-10-09T07:02:28;99276.06;;;10.83;100.00
76732;BME280;65656;51.130;13.658;2023-10-09T07:06:30;99306.44;;;10.81;100.00
76732;BME280;65656;51.130;13.658;2023-10-09T07:10:32;99306.06;;;10.73;100.00
76732;BME280;65656;51.130;13.658;2023-10-09T07:14:34;99299.38;;;10.85;100.00
76732;BME280;65656;51.130;13.658;2023-10-09T07:18:36;99319.66;;;11.06;100.00
76732;BME280;65656;51.130;13.658;2023-10-09T07:22:38;99315.94;;;11.18;100.00
76732;BME280;65656;51.130;13.658;2023-10-09T07:26:40;99311.66;;;11.27;100.00
76732;BME280;65656;51.130;13.658;2023-10-09T07:30:41;99313.53;;;11.48;100.00
76732;BME280;65656;51.130;13.658;2023-10-09T07:34:44;99314.41;;;11.54;100.00
76732;BME280;65656;51.130;13.658;2023-10-09T07:38:46;99312.66;;;11.69;100.00
76732;BME280;65656;51.130;13.658;2023-10-09T07:42:47;99320.03;;;11.91;100.00
76732;BME280;65656;51.130;13.658;2023-10-09T07:46:49;99319.56;;;12.04;100.00
76732;BME280;65656;51.130;13.658;2023-10-09T07:50:52;99325.75;;;12.21;100.00
76732;BME280;65656;51.130;13.658;2023-10-09T07:54:53;99326.34;;;12.28;100.00
76732;BME280;65656;51.130;13.658;2023-10-09T07:58:55;99331.94;;;12.44;100.00
76732;BME280;65656;51.130;13.658;2023-10-09T08:02:57;99329.69;;;12.36;100.00
76732;BME280;65656;51.130;13.658;2023-10-09T08:07:00;99336.28;;;12.35;100.00
76732;BME280;65656;51.130;13.658;2023-10-09T08:11:21;99343.22;;;12.42;100.00
76732;BME280;65656;51.130;13.658;2023-10-09T08:15:23;99331.44;;;12.47;100.00
76732;BME280;65656;51.130;13.658;2023-10-09T08:19:26;99342.91;;;12.39;100.00
76732;BME280;65656;51.130;13.658;2023-10-09T08:23:28;99357.16;;;12.36;100.00
76732;BME280;65656;51.130;13.658;2023-10-09T08:27:30;99357.22;;;12.41;100.00
76732;BME280;65656;51.130;13.658;2023-10-09T08:31:32;99362.28;;;12.54;100.00
76732;BME280;65656;51.130;13.658;2023-10-09T08:35:35;99355.03;;;12.43;100.00
76732;BME280;65656;51.130;13.658;2023-10-09T08:39:39;99362.72;;;12.41;100.00
76732;BME280;65656;51.130;13.658;2023-10-09T08:43:43;99364.38;;;12.42;100.00
76732;BME280;65656;51.130;13.658;2023-10-09T08:47:48;99382.06;;;12.56;100.00
76732;BME280;65656;51.130;13.658;2023-10-09T08:51:50;99369.41;;;12.55;100.00
76732;BME280;65656;51.130;13.658;2023-10-09T08:55:53;99364.97;;;12.49;100.00
76732;BME280;65656;51.130;13.658;2023-10-09T08:59:55;99357.28;;;12.51;100.00
76732;BME280;65656;51.130;13.658;2023-10-09T09:03:56;99354.81;;;12.49;100.00
76732;BME280;65656;51.130;13.658;2023-10-09T09:07:58;99362.28;;;12.54;100.00
76732;BME280;65656;51.130;13.658;2023-10-09T09:12:01;99363.59;;;12.51;100.00
76732;BME280;65656;51.130;13.658;2023-10-09T09:16:02;99360.63;;;12.53;100.00
76732;BME280;65656;51.130;13.658;2023-10-09T09:20:19;99368.31;;;12.56;100.00
76732;BME280;65656;51.130;13.658;2023-10-09T09:24:21;99377.63;;;12.50;100.00
76732;BME280;65656;51.130;13.658;2023-10-09T09:28:24;99372.13;;;12.50;100.00
76732;BME280;65656;51.130;13.658;2023-10-09T09:32:27;99363.81;;;12.45;100.00
76732;BME280;65656;51.130;13.658;2023-10-09T09:36:33;99341.88;;;12.50;100.00
76732;BME280;65656;51.130;13.658;2023-10-09T09:40:35;99340.78;;;12.51;100.00
76732;BME280;65656;51.130;13.658;2023-10-09T09:44:38;99353.44;;;12.52;100.00
76732;BME280;65656;51.130;13.658;2023-10-09T09:48:40;99372.13;;;12.50;100.00
76732;BME280;65656;51.130;13.658;2023-10-09T09:52:43;99365.25;;;12.47;100.00
76732;BME280;65656;51.130;13.658;2023-10-09T09:56:45;99366.63;;;12.50;100.00
76732;BME280;65656;51.130;13.658;2023-10-09T10:00:50;99350.19;;;12.60;100.00
76732;BME280;65656;51.130;13.658;2023-10-09T10:04:56;99360.91;;;12.57;100.00
76732;BME280;65656;51.130;13.658;2023-10-09T10:09:00;99350.69;;;12.52;100.00
76732;BME280;65656;51.130;13.658;2023-10-09T10:13:02;99368.00;;;12.47;100.00
76732;BME280;65656;51.130;13.658;2023-10-09T10:17:06;99362.72;;;12.41;100.00
76732;BME280;65656;51.130;13.658;2023-10-09T10:21:12;99370.97;;;12.41;100.00
76732;BME280;65656;51.130;13.658;2023-10-09T10:25:32;99380.31;;;12.45;100.00
76732;BME280;65656;51.130;13.658;2023-10-09T10:29:33;99378.88;;;12.37;100.00
76732;BME280;65656;51.130;13.658;2023-10-09T10:34:04;99358.66;;;12.48;100.00
76732;BME280;65656;51.130;13.658;2023-10-09T10:38:30;99356.16;;;12.47;100.00
76732;BME280;65656;51.130;13.658;2023-10-09T10:42:31;99361.06;;;12.40;100.00
76732;BME280;65656;51.130;13.658;2023-10-09T10:46:33;99357.16;;;12.36;100.00
76732;BME280;65656;51.130;13.658;2023-10-09T10:50:37;99340.50;;;12.47;100.00
76732;BME280;65656;51.130;13.658;2023-10-09T10:54:38;99327.63;;;12.53;100.00
76732;BME280;65656;51.130;13.658;2023-10-09T10:58:40;99341.94;;;12.60;100.00
76732;BME280;65656;51.130;13.658;2023-10-09T11:02:43;99336.44;;;12.55;100.00
76732;BME280;65656;51.130;13.658;2023-10-09T11:06:50;99324.66;;;12.65;100.00
76732;BME280;65656;51.130;13.658;2023-10-09T11:10:52;99323.38;;;12.77;100.00
76732;BME280;65656;51.130;13.658;2023-10-09T11:14:54;99332.66;;;12.66;100.00
76732;BME280;65656;51.130;13.658;2023-10-09T11:18:55;99324.44;;;12.71;100.00
76732;BME280;65656;51.130;13.658;2023-10-09T11:22:59;99316.78;;;12.83;100.00
76732;BME280;65656;51.130;13.658;2023-10-09T11:27:01;99320.09;;;12.80;100.00
76732;BME280;65656;51.130;13.658;2023-10-09T11:31:06;99318.97;;;12.81;100.00
76732;BME280;65656;51.130;13.658;2023-10-09T11:35:12;99327.78;;;12.83;100.00
76732;BME280;65656;51.130;13.658;2023-10-09T11:39:25;99328.38;;;12.91;100.00
76732;BME280;65656;51.130;13.658;2023-10-09T11:43:27;99337.25;;;13.03;100.00
76732;BME280;65656;51.130;13.658;2023-10-09T11:47:34;99340.50;;;12.95;100.00
76732;BME280;65656;51.130;13.658;2023-10-09T11:51:35;99321.53;;;12.93;100.00
76732;BME280;65656;51.130;13.658;2023-10-09T11:55:38;99313.59;;;13.02;100.00
76732;BME280;65656;51.130;13.658;2023-10-09T11:59:40;99316.34;;;13.02;100.00
76732;BME280;65656;51.130;13.658;2023-10-09T12:03:42;99315.78;;;13.00;100.00
76732;BME280;65656;51.130;13.658;2023-10-09T12:07:44;99321.78;;;12.87;100.00
76732;BME280;65656;51.130;13.658;2023-10-09T12:11:47;99306.38;;;12.91;100.00
76732;BME280;65656;51.130;13.658;2023-10-09T12:16:04;99302.72;;;12.75;100.00
76732;BME280;65656;51.130;13.658;2023-10-09T12:20:07;99305.75;;;12.73;100.00
76732;BME280;65656;51.130;13.658;2023-10-09T12:24:09;99311.28;;;12.83;100.00
76732;BME280;65656;51.130;13.658;2023-10-09T12:28:15;99315.72;;;12.90;100.00
76732;BME280;65656;51.130;13.658;2023-10-09T12:32:17;99322.34;;;12.94;100.00
76732;BME280;65656;51.130;13.658;2023-10-09T12:36:18;99316.28;;;12.87;100.00
76732;BME280;65656;51.130;13.658;2023-10-09T12:40:21;99307.75;;;12.88;100.00
76732;BME280;65656;51.130;13.658;2023-10-09T12:44:24;99318.47;;;12.85;100.00
76732;BME280;65656;51.130;13.658;2023-10-09T12:48:25;99310.22;;;12.90;100.00
76732;BME280;65656;51.130;13.658;2023-10-09T12:52:27;99311.88;;;12.86;100.00
76732;BME280;65656;51.130;13.658;2023-10-09T12:56:28;99305.28;;;12.87;100.00
76732;BME280;65656;51.130;13.658;2023-10-09T13:00:32;99307.97;;;12.81;100.00
76732;BME280;65656;51.130;13.658;2023-10-09T13:04:34;99313.53;;;12.87;100.00
76732;BME280;65656;51.130;13.658;2023-10-09T13:08:36;99299.31;;;13.10;100.00
76732;BME280;65656;51.130;13.658;2023-10-09T13:12:38;99294.63;;;13.10;100.00
76732;BME280;65656;51.130;13.658;2023-10-09T13:16:41;99290.25;;;13.09;100.00
76732;BME280;65656;51.130;13.658;2023-10-09T13:20:42;99291.59;;;13.07;100.00
76732;BME280;65656;51.130;13.658;2023-10-09T13:24:44;99294.31;;;12.97;100.00
76732;BME280;65656;51.130;13.658;2023-10-09T13:28:46;99286.94;;;13.13;100.00
76732;BME280;65656;51.130;13.658;2023-10-09T13:32:50;99286.34;;;13.05;100.00
76732;BME280;65656;51.130;13.658;2023-10-09T13:36:52;99286.09;;;13.07;100.00
76732;BME280;65656;51.130;13.658;2023-10-09T13:40:57;99286.16;;;13.22;100.00
76732;BME280;65656;51.130;13.658;2023-10-09T13:44:58;99291.63;;;13.12;100.00
76732;BME280;65656;51.130;13.658;2023-10-09T13:49:01;99294.88;;;13.04;100.00
76732;BME280;65656;51.130;13.658;2023-10-09T13:53:03;99292.09;;;12.99;100.00
76732;BME280;65656;51.130;13.658;2023-10-09T13:57:05;99293.78;;;13.05;100.00
76732;BME280;65656;51.130;13.658;2023-10-09T14:01:07;99290.50;;;13.08;100.00
76732;BME280;65656;51.130;13.658;2023-10-09T14:05:10;99296.63;;;13.20;100.00
76732;BME280;65656;51.130;13.658;2023-10-09T14:09:11;99301.78;;;13.11;100.00
76732;BME280;65656;51.130;13.658;2023-10-09T14:13:13;99296.84;;;13.14;100.00
76732;BME280;65656;51.130;13.658;2023-10-09T14:17:15;99291.66;;;13.17;100.00
76732;BME280;65656;51.130;13.658;2023-10-09T14:21:19;99289.44;;;13.19;100.00
76732;BME280;65656;51.130;13.658;2023-10-09T14:25:21;99284.53;;;13.26;100.00
76732;BME280;65656;51.130;13.658;2023-10-09T14:29:22;99297.69;;;13.19;100.00
76732;BME280;65656;51.130;13.658;2023-10-09T14:33:26;99291.66;;;13.17;100.00
76732;BME280;65656;51.130;13.658;2023-10-09T14:37:29;99300.41;;;13.14;100.00
76732;BME280;65656;51.130;13.658;2023-10-09T14:41:30;99304.28;;;13.13;100.00
76732;BME280;65656;51.130;13.658;2023-10-09T14:45:36;99301.53;;;13.18;100.00
76732;BME280;65656;51.130;13.658;2023-10-09T14:49:37;99300.44;;;13.19;100.00
76732;BME280;65656;51.130;13.658;2023-10-09T14:53:40;99303.16;;;13.14;100.00
76732;BME280;65656;51.130;13.658;2023-10-09T14:57:42;99296.59;;;13.15;100.00
76732;BME280;65656;51.130;13.658;2023-10-09T15:01:43;99313.03;;;13.05;100.00
76732;BME280;65656;51.130;13.658;2023-10-09T15:05:45;99309.19;;;13.01;100.00
76732;BME280;65656;51.130;13.658;2023-10-09T15:09:48;99311.97;;;13.11;100.00
76732;BME280;65656;51.130;13.658;2023-10-09T15:13:50;99307.53;;;13.05;100.00
76732;BME280;65656;51.130;13.658;2023-10-09T15:17:52;99308.03;;;12.92;100.00
76732;BME280;65656;51.130;13.658;2023-10-09T15:21:53;99312.47;;;12.98;100.00
76732;BME280;65656;51.130;13.658;2023-10-09T15:25:56;99303.69;;;13.06;100.00
76732;BME280;65656;51.130;13.658;2023-10-09T15:29:58;99310.31;;;13.10;100.00
76732;BME280;65656;51.130;13.658;2023-10-09T15:34:00;99308.59;;;12.94;100.00
76732;BME280;65656;51.130;13.658;2023-10-09T15:38:01;99321.84;;;13.07;100.00
76732;BME280;65656;51.130;13.658;2023-10-09T15:42:05;99325.66;;;12.96;100.00
76732;BME280;65656;51.130;13.658;2023-10-09T15:46:10;99324.56;;;12.97;100.00
76732;BME280;65656;51.130;13.658;2023-10-09T15:50:12;99325.38;;;12.97;100.00
76732;BME280;65656;51.130;13.658;2023-10-09T15:54:14;99328.97;;;12.98;100.00
76732;BME280;65656;51.130;13.658;2023-10-09T15:58:17;99338.34;;;13.02;100.00
76732;BME280;65656;51.130;13.658;2023-10-09T16:02:19;99339.44;;;13.01;100.00
76732;BME280;65656;51.130;13.658;2023-10-09T16:06:21;99347.94;;;12.99;100.00
76732;BME280;65656;51.130;13.658;2023-10-09T16:10:23;99349.84;;;12.94;100.00
76732;BME280;65656;51.130;13.658;2023-10-09T16:14:26;99348.78;;;13.00;100.00
76732;BME280;65656;51.130;13.658;2023-10-09T16:18:28;99352.59;;;12.99;100.00
76732;BME280;65656;51.130;13.658;2023-10-09T16:22:29;99351.53;;;13.05;100.00
76732;BME280;65656;51.130;13.658;2023-10-09T16:26:31;99348.47;;;12.96;100.00
76732;BME280;65656;51.130;13.658;2023-10-09T16:30:34;99344.38;;;12.99;100.00
76732;BME280;65656;51.130;13.658;2023-10-09T16:34:35;99341.03;;;12.92;100.00
76732;BME280;65656;51.130;13.658;2023-10-09T16:38:37;99347.91;;;12.89;100.00
76732;BME280;65656;51.130;13.658;2023-10-09T16:42:38;99346.53;;;12.92;100.00
76732;BME280;65656;51.130;13.658;2023-10-09T16:46:41;99352.56;;;12.89;100.00
76732;BME280;65656;51.130;13.658;2023-10-09T16:50:43;99351.78;;;12.98;100.00
76732;BME280;65656;51.130;13.658;2023-10-09T16:54:44;99360.91;;;13.04;100.00
76732;BME280;65656;51.130;13.658;2023-10-09T16:58:46;99364.44;;;12.99;100.00
76732;BME280;65656;51.130;13.658;2023-10-09T17:02:49;99370.25;;;13.03;100.00
76732;BME280;65656;51.130;13.658;2023-10-09T17:06:51;99371.94;;;13.14;100.00
76732;BME280;65656;51.130;13.658;2023-10-09T17:10:53;99371.22;;;13.24;100.00
76732;BME280;65656;51.130;13.658;2023-10-09T17:14:54;99378.06;;;13.21;100.00
76732;BME280;65656;51.130;13.658;2023-10-09T17:18:57;99373.97;;;13.24;100.00
76732;BME280;65656;51.130;13.658;2023-10-09T17:22:59;99369.28;;;13.24;100.00
76732;BME280;65656;51.130;13.658;2023-10-09T17:27:00;99353.88;;;13.23;100.00
76732;BME280;65656;51.130;13.658;2023-10-09T17:31:03;99372.56;;;13.21;100.00
76732;BME280;65656;51.130;13.658;2023-10-09T17:35:07;99374.78;;;13.24;100.00
76732;BME280;65656;51.130;13.658;2023-10-09T17:39:08;99379.19;;;13.25;100.00
76732;BME280;65656;51.130;13.658;2023-10-09T17:43:10;99381.41;;;13.28;100.00
76732;BME280;65656;51.130;13.658;2023-10-09T17:47:12;99380.59;;;13.33;100.00
76732;BME280;65656;51.130;13.658;2023-10-09T17:51:15;99383.66;;;13.42;100.00
76732;BME280;65656;51.130;13.658;2023-10-09T17:55:16;99382.00;;;13.41;100.00
76732;BME280;65656;51.130;13.658;2023-10-09T17:59:18;99370.41;;;13.33;100.00
76732;BME280;65656;51.130;13.658;2023-10-09T18:03:19;99380.34;;;13.40;100.00
76732;BME280;65656;51.130;13.658;2023-10-09T18:07:23;99378.16;;;13.42;100.00
76732;BME280;65656;51.130;13.658;2023-10-09T18:11:24;99376.78;;;13.44;100.00
76732;BME280;65656;51.130;13.658;2023-10-09T18:15:26;99370.75;;;13.47;100.00
76732;BME280;65656;51.130;13.658;2023-10-09T18:19:28;99372.09;;;13.45;100.00
76732;BME280;65656;51.130;13.658;2023-10-09T18:23:30;99368.78;;;13.43;100.00
76732;BME280;65656;51.130;13.658;2023-10-09T18:27:32;99391.09;;;13.46;100.00
76732;BME280;65656;51.130;13.658;2023-10-09T18:31:34;99377.63;;;13.50;100.00
76732;BME280;65656;51.130;13.658;2023-10-09T18:35:36;99374.06;;;13.49;100.00
76732;BME280;65656;51.130;13.658;2023-10-09T18:39:39;99374.91;;;13.60;100.00
76732;BME280;65656;51.130;13.658;2023-10-09T18:43:41;99389.25;;;13.72;100.00
76732;BME280;65656;51.130;13.658;2023-10-09T18:47:42;99374.66;;;13.66;100.00
76732;BME280;65656;51.130;13.658;2023-10-09T18:51:44;99384.28;;;13.64;100.00
76732;BME280;65656;51.130;13.658;2023-10-09T18:55:47;99383.19;;;13.75;100.00
76732;BME280;65656;51.130;13.658;2023-10-09T18:59:50;99386.50;;;13.77;100.00
76732;BME280;65656;51.130;13.658;2023-10-09T19:03:52;99373.84;;;13.76;100.00
76732;BME280;65656;51.130;13.658;2023-10-09T19:07:54;99379.91;;;13.73;100.00
76732;BME280;65656;51.130;13.658;2023-10-09T19:11:57;99378.25;;;13.82;100.00
76732;BME280;65656;51.130;13.658;2023-10-09T19:15:58;99391.47;;;13.80;100.00
76732;BME280;65656;51.130;13.658;2023-10-09T19:20:00;99388.19;;;13.88;100.00
76732;BME280;65656;51.130;13.658;2023-10-09T19:24:02;99389.28;;;13.82;100.00
76732;BME280;65656;51.130;13.658;2023-10-09T19:28:05;99379.09;;;13.78;100.00
76732;BME280;65656;51.130;13.658;2023-10-09T19:32:06;99381.59;;;13.94;100.00
76732;BME280;65656;51.130;13.658;2023-10-09T19:36:09;99382.69;;;13.88;100.00
76732;BME280;65656;51.130;13.658;2023-10-09T19:40:11;99381.59;;;13.94;100.00
76732;BME280;65656;51.130;13.658;2023-10-09T19:44:14;99388.22;;;13.93;100.00
76732;BME280;65656;51.130;13.658;2023-10-09T19:48:15;99384.88;;;13.91;100.00
76732;BME280;65656;51.130;13.658;2023-10-09T19:52:17;99388.19;;;13.88;100.00
76732;BME280;65656;51.130;13.658;2023-10-09T19:56:18;99390.94;;;13.88;100.00
76732;BME280;65656;51.130;13.658;2023-10-09T20:00:21;99400.84;;;13.89;100.00
76732;BME280;65656;51.130;13.658;2023-10-09T20:04:24;99403.63;;;13.94;100.00
76732;BME280;65656;51.130;13.658;2023-10-09T20:08:25;99408.06;;;14.11;100.00
76732;BME280;65656;51.130;13.658;2023-10-09T20:12:27;99409.72;;;14.02;100.00
76732;BME280;65656;51.130;13.658;2023-10-09T20:16:29;99409.44;;;14.03;100.00
76732;BME280;65656;51.130;13.658;2023-10-09T20:20:31;99406.97;;;14.17;100.00
76732;BME280;65656;51.130;13.658;2023-10-09T20:24:33;99412.16;;;14.08;100.00
76732;BME280;65656;51.130;13.658;2023-10-09T20:28:34;99408.59;;;14.08;100.00
76732;BME280;65656;51.130;13.658;2023-10-09T20:32:37;99415.78;;;14.04;100.00
76732;BME280;65656;51.130;13.658;2023-10-09T20:36:39;99413.53;;;14.01;100.00
76732;BME280;65656;51.130;13.658;2023-10-09T20:40:41;99425.13;;;13.98;100.00
76732;BME280;65656;51.130;13.658;2023-10-09T20:44:42;99420.44;;;13.98;100.00
76732;BME280;65656;51.130;13.658;2023-10-09T20:48:45;99425.66;;;14.00;100.00
76732;BME280;65656;51.130;13.658;2023-10-09T20:52:48;99445.50;;;14.07;100.00
76732;BME280;65656;51.130;13.658;2023-10-09T20:56:50;99446.63;;;14.11;100.00